Time;durP1;ratioP1;P1;durP2;ratioP2;P2;SDS_P1;SDS_P2;PMS_P1;PMS_P2;Temp;Humidity;BMP_temperature;BMP_pressure;BME280_temperature;BME280_humidity;BME280_pressure;Samples;Min_cycle;Max_cycle;Signal;HPM_P1;HPM_P2
2023/09/05 00:00:30;;;;;;;3.50;2.22;;;;;;;;;;6153008;28;20129;-90
2023/09/05 00:03:42;;;;;;;3.58;2.20;;;;;;;;;;6152664;28;20042;-90
2023/09/05 00:06:53;;;;;;;4.65;2.60;;;;;;;;;;6178408;28;20045;-89
2023/09/05 00:10:06;;;;;;;5.13;2.88;;;;;;;;;;6197609;28;20056;-90
2023/09/05 00:13:11;;;;;;;10.15;4.25;;;;;;;;;;6139793;28;20048;-90
2023/09/05 00:16:16;;;;;;;4.65;2.90;;;;;;;;;;6190818;28;20406;-90
2023/09/05 00:19:19;;;;;;;4.57;2.53;;;;;;;;;;6198893;28;20222;-90
2023/09/05 00:22:25;;;;;;;8.43;2.70;;;;;;;;;;6209270;28;20042;-90
2023/09/05 00:25:47;;;;;;;5.97;3.00;;;;;;;;;;6213414;28;20096;-90
2023/09/05 00:28:57;;;;;;;3.90;2.38;;;;;;;;;;6177440;28;20036;-91
2023/09/05 00:32:14;;;;;;;5.35;2.47;;;;;;;;;;6158246;28;20049;-91
2023/09/05 00:35:22;;;;;;;3.92;2.70;;;;;;;;;;6156245;28;20126;-90
2023/09/05 00:38:27;;;;;;;4.35;3.13;;;;;;;;;;6194274;28;20049;-90
2023/09/05 00:41:57;;;;;;;3.85;2.50;;;;;;;;;;6211257;28;20060;-91
2023/09/05 00:45:25;;;;;;;5.63;2.90;;;;;;;;;;6155809;28;20049;-90
2023/09/05 00:48:37;;;;;;;6.13;3.35;;;;;;;;;;6131035;28;20101;-90
2023/09/05 00:51:59;;;;;;;5.10;3.72;;;;;;;;;;6132551;28;20042;-91
2023/09/05 00:55:53;;;;;;;7.05;3.50;;;;;;;;;;6119205;28;20415;-90
2023/09/05 00:59:01;;;;;;;6.63;3.53;;;;;;;;;;6170040;28;20121;-91
2023/09/05 01:02:08;;;;;;;5.47;3.88;;;;;;;;;;6201561;28;20052;-90
2023/09/05 01:05:20;;;;;;;5.85;2.97;;;;;;;;;;6200461;28;20039;-90
2023/09/05 01:08:41;;;;;;;3.83;2.60;;;;;;;;;;6227188;28;20047;-90
2023/09/05 01:11:44;;;;;;;4.72;2.55;;;;;;;;;;6203396;28;20114;-90
2023/09/05 01:14:47;;;;;;;3.97;2.88;;;;;;;;;;6241504;28;20162;-90
2023/09/05 01:17:57;;;;;;;5.38;2.70;;;;;;;;;;6197457;28;20362;-90
2023/09/05 01:21:34;;;;;;;5.45;2.90;;;;;;;;;;6224803;28;20045;-91
2023/09/05 01:24:43;;;;;;;4.10;2.63;;;;;;;;;;6172363;28;20041;-91
2023/09/05 01:27:48;;;;;;;4.15;2.42;;;;;;;;;;6211832;28;20054;-90
2023/09/05 01:30:56;;;;;;;5.40;2.30;;;;;;;;;;6245302;28;20397;-90
2023/09/05 01:33:58;;;;;;;;;;;;;;;;;;6222684;28;20132;-90
2023/09/05 01:37:13;;;;;;;4.82;2.53;;;;;;;;;;6200477;28;19920;-90
2023/09/05 01:40:21;;;;;;;;;;;;;;;;;;6169665;28;20057;-91
2023/09/05 01:43:43;;;;;;;3.42;2.40;;;;;;;;;;6227728;28;19927;-91
2023/09/05 01:46:53;;;;;;;6.22;2.92;;;;;;;;;;6205479;28;20515;-90
2023/09/05 01:50:01;;;;;;;4.70;2.50;;;;;;;;;;6187465;28;20033;-88
2023/09/05 01:53:14;;;;;;;;;;;;;;;;;;6207010;28;20110;-89
2023/09/05 01:56:25;;;;;;;7.32;2.58;;;;;;;;;;6221857;28;19927;-89
2023/09/05 01:59:28;;;;;;;5.30;3.30;;;;;;;;;;6207705;28;20054;-90
2023/09/05 02:02:38;;;;;;;4.32;2.53;;;;;;;;;;6209523;28;20041;-90
2023/09/05 02:05:40;;;;;;;2.88;2.38;;;;;;;;;;6189827;28;20055;-89
2023/09/05 02:08:46;;;;;;;5.10;2.58;;;;;;;;;;6219615;28;20042;-89
2023/09/05 02:11:54;;;;;;;5.07;2.60;;;;;;;;;;6244760;28;20076;-87
2023/09/05 02:14:56;;;;;;;4.03;2.90;;;;;;;;;;6271219;28;20135;-90
2023/09/05 02:18:04;;;;;;;5.80;3.00;;;;;;;;;;6278079;28;20079;-91
2023/09/05 02:21:16;;;;;;;5.47;2.83;;;;;;;;;;6208420;28;20105;-92
2023/09/05 02:24:21;;;;;;;7.25;2.83;;;;;;;;;;6218892;28;20032;-92
2023/09/05 02:27:23;;;;;;;5.23;3.00;;;;;;;;;;6260623;28;20589;-90
2023/09/05 02:30:32;;;;;;;5.00;2.90;;;;;;;;;;6212100;28;20049;-89
2023/09/05 02:33:46;;;;;;;4.85;2.90;;;;;;;;;;6224362;28;20049;-90
2023/09/05 02:36:53;;;;;;;7.32;3.60;;;;;;;;;;6217686;28;20429;-89
2023/09/05 02:40:10;;;;;;;8.20;3.97;;;;;;;;;;6231041;28;20046;-89
2023/09/05 02:43:19;;;;;;;5.82;3.60;;;;;;;;;;6201904;28;20040;-90
2023/09/05 02:46:23;;;;;;;5.35;3.58;;;;;;;;;;6216335;28;20041;-88
2023/09/05 02:49:27;;;;;;;7.03;3.55;;;;;;;;;;6187855;28;20572;-90
2023/09/05 02:52:31;;;;;;;5.40;3.20;;;;;;;;;;6192845;28;20430;-89
2023/09/05 02:55:49;;;;;;;5.32;3.20;;;;;;;;;;6230727;28;20056;-89
2023/09/05 02:58:53;;;;;;;6.27;3.37;;;;;;;;;;6254427;28;20180;-90
2023/09/05 03:01:56;;;;;;;6.05;4.30;;;;;;;;;;6219222;28;20048;-90
2023/09/05 03:04:58;;;;;;;4.88;3.50;;;;;;;;;;6228543;28;20047;-89
2023/09/05 03:08:03;;;;;;;7.80;4.18;;;;;;;;;;6223505;28;20067;-89
2023/09/05 03:11:05;;;;;;;7.05;4.03;;;;;;;;;;6240150;28;20049;-90
2023/09/05 03:14:07;;;;;;;6.22;3.45;;;;;;;;;;6248678;28;20081;-90
2023/09/05 03:17:15;;;;;;;5.47;2.78;;;;;;;;;;6182981;28;20092;-90
2023/09/05 03:24:18;;;;;;;4.72;2.92;;;;;;;;;;6240667;28;20112;-91
2023/09/05 03:27:26;;;;;;;5.85;3.28;;;;;;;;;;6193610;28;20073;-90
2023/09/05 03:31:08;;;;;;;5.03;3.05;;;;;;;;;;6209395;28;20057;-91
2023/09/05 03:34:48;;;;;;;5.35;3.13;;;;;;;;;;6185019;28;20050;-90
2023/09/05 03:37:58;;;;;;;4.63;2.90;;;;;;;;;;6194451;28;20049;-90
2023/09/05 03:41:05;;;;;;;3.53;2.50;;;;;;;;;;6219722;28;20044;-90
2023/09/05 03:44:16;;;;;;;4.50;2.70;;;;;;;;;;6219202;28;20056;-90
2023/09/05 03:47:24;;;;;;;3.33;2.58;;;;;;;;;;6276707;28;20180;-90
2023/09/05 03:50:32;;;;;;;4.68;2.67;;;;;;;;;;6224438;28;20055;-91
2023/09/05 03:53:36;;;;;;;3.20;2.47;;;;;;;;;;6232268;28;20436;-91
2023/09/05 03:56:40;;;;;;;3.53;2.80;;;;;;;;;;6224561;28;20048;-90
2023/09/05 03:59:45;;;;;;;4.90;2.90;;;;;;;;;;6230447;28;20044;-91
2023/09/05 04:02:48;;;;;;;6.15;3.20;;;;;;;;;;6249219;28;20044;-90
2023/09/05 04:05:53;;;;;;;5.88;3.17;;;;;;;;;;6248345;28;20057;-90
2023/09/05 04:08:58;;;;;;;6.53;4.10;;;;;;;;;;6228597;28;20118;-90
2023/09/05 04:12:01;;;;;;;;;;;;;;;;;;6232637;28;20040;-90
2023/09/05 04:15:10;;;;;;;6.20;2.92;;;;;;;;;;6231967;28;19928;-90
2023/09/05 04:18:16;;;;;;;6.55;3.65;;;;;;;;;;6219401;28;20041;-90
2023/09/05 04:21:18;;;;;;;5.82;2.53;;;;;;;;;;6242660;28;20059;-90
2023/09/05 04:24:20;;;;;;;5.63;3.22;;;;;;;;;;6243287;28;20115;-89
2023/09/05 04:27:27;;;;;;;5.95;2.38;;;;;;;;;;6252119;28;20190;-90
2023/09/05 04:30:34;;;;;;;7.13;3.20;;;;;;;;;;6227820;28;20052;-90
2023/09/05 04:33:40;;;;;;;4.35;2.83;;;;;;;;;;6247099;28;20036;-90
2023/09/05 04:36:43;;;;;;;4.18;2.90;;;;;;;;;;6238977;28;20134;-90
2023/09/05 04:39:48;;;;;;;6.28;2.90;;;;;;;;;;6236157;28;20045;-90
2023/09/05 04:42:53;;;;;;;5.43;3.30;;;;;;;;;;6241998;28;20053;-90
2023/09/05 04:46:19;;;;;;;6.00;3.30;;;;;;;;;;6262025;28;20048;-89
2023/09/05 04:49:25;;;;;;;6.97;3.00;;;;;;;;;;6249275;28;20553;-90
2023/09/05 04:52:28;;;;;;;5.43;3.20;;;;;;;;;;6229094;28;20041;-90
2023/09/05 04:55:30;;;;;;;5.38;4.10;;;;;;;;;;6244583;28;20072;-90
2023/09/05 04:58:33;;;;;;;6.00;3.75;;;;;;;;;;6228365;28;20047;-89
2023/09/05 05:01:37;;;;;;;5.80;3.35;;;;;;;;;;6201827;28;20629;-90
2023/09/05 05:04:46;;;;;;;5.95;3.78;;;;;;;;;;6218488;28;20049;-89
2023/09/05 05:07:50;;;;;;;4.80;3.33;;;;;;;;;;6226639;28;20045;-89
2023/09/05 05:14:42;;;;;;;4.80;3.17;;;;;;;;;;6204189;28;20041;-90
2023/09/05 05:17:56;;;;;;;5.20;3.25;;;;;;;;;;6202424;28;20119;-89
2023/09/05 05:21:05;;;;;;;5.63;3.10;;;;;;;;;;6196667;28;20087;-89
2023/09/05 05:24:15;;;;;;;5.05;2.83;;;;;;;;;;6185204;28;20591;-89
2023/09/05 05:27:24;;;;;;;6.22;3.95;;;;;;;;;;6202589;28;20110;-90
2023/09/05 05:30:34;;;;;;;5.07;2.80;;;;;;;;;;6226820;28;20055;-89
2023/09/05 05:33:48;;;;;;;7.20;2.80;;;;;;;;;;6226333;28;21568;-90
2023/09/05 05:36:51;;;;;;;8.82;2.95;;;;;;;;;;6238722;28;20561;-90
2023/09/05 05:40:03;;;;;;;4.18;2.72;;;;;;;;;;6236309;28;20493;-90
2023/09/05 05:43:20;;;;;;;3.90;2.70;;;;;;;;;;6235711;28;20532;-90
2023/09/05 05:46:26;;;;;;;4.40;3.17;;;;;;;;;;6245837;28;20051;-89
2023/09/05 05:49:33;;;;;;;5.50;2.97;;;;;;;;;;6240286;28;20044;-90
2023/09/05 05:52:46;;;;;;;7.05;3.00;;;;;;;;;;6214230;28;20055;-90
2023/09/05 05:55:49;;;;;;;6.35;2.83;;;;;;;;;;6207416;28;20162;-90
2023/09/05 05:59:12;;;;;;;3.50;2.47;;;;;;;;;;6203608;28;20202;-91
2023/09/05 06:03:03;;;;;;;5.22;2.97;;;;;;;;;;6155947;28;20045;-90
2023/09/05 06:06:24;;;;;;;8.05;3.50;;;;;;;;;;6213759;28;20539;-90
2023/09/05 06:09:58;;;;;;;6.47;3.63;;;;;;;;;;6195127;28;20041;-90
2023/09/05 06:16:45;;;;;;;4.60;2.90;;;;;;;;;;6211055;28;20040;-89
2023/09/05 06:19:56;;;;;;;8.20;3.13;;;;;;;;;;6133230;28;20061;-89
2023/09/05 06:23:05;;;;;;;3.88;2.78;;;;;;;;;;6212176;28;20049;-90
2023/09/05 06:26:21;;;;;;;6.50;2.65;;;;;;;;;;6202577;28;20122;-90
2023/09/05 06:29:27;;;;;;;3.28;2.70;;;;;;;;;;6226970;28;20052;-90
2023/09/05 06:32:32;;;;;;;4.10;2.60;;;;;;;;;;6194602;28;20039;-90
2023/09/05 06:36:18;;;;;;;5.40;2.53;;;;;;;;;;6226028;28;20513;-92
2023/09/05 06:39:26;;;;;;;4.85;2.70;;;;;;;;;;6179883;28;20044;-91
2023/09/05 06:42:56;;;;;;;3.67;2.50;;;;;;;;;;6151498;28;21516;-91
2023/09/05 06:46:11;;;;;;;3.58;2.50;;;;;;;;;;6211669;28;20068;-90
2023/09/05 06:49:31;;;;;;;6.03;2.88;;;;;;;;;;6184199;28;20073;-90
2023/09/05 06:52:38;;;;;;;4.10;2.28;;;;;;;;;;6220385;28;20524;-90
2023/09/05 06:55:55;;;;;;;4.68;2.60;;;;;;;;;;6191045;28;20088;-90
2023/09/05 06:59:00;;;;;;;4.13;2.63;;;;;;;;;;6243661;28;20077;-91
2023/09/05 07:02:02;;;;;;;3.33;2.30;;;;;;;;;;6230331;28;20056;-91
2023/09/05 07:05:05;;;;;;;3.63;2.33;;;;;;;;;;6231546;28;20061;-90
2023/09/05 07:08:06;;;;;;;6.03;2.95;;;;;;;;;;6249849;28;20123;-91
2023/09/05 07:11:08;;;;;;;2.95;2.55;;;;;;;;;;6244825;28;20053;-91
2023/09/05 07:14:10;;;;;;;5.68;2.47;;;;;;;;;;6241442;28;20044;-91
2023/09/05 07:17:18;;;;;;;3.15;2.20;;;;;;;;;;6246036;27;20630;-76
2023/09/05 07:20:20;;;;;;;2.53;2.05;;;;;;;;;;6227428;28;20046;-80
2023/09/05 07:23:22;;;;;;;3.60;2.28;;;;;;;;;;6232103;28;20672;-78
2023/09/05 07:26:23;;;;;;;2.80;2.17;;;;;;;;;;6234309;28;20054;-77
2023/09/05 07:29:26;;;;;;;3.15;2.00;;;;;;;;;;6214096;28;20046;-78
2023/09/05 07:32:28;;;;;;;3.22;2.00;;;;;;;;;;6232360;28;20049;-80
2023/09/05 07:35:29;;;;;;;3.35;2.40;;;;;;;;;;6246446;28;20050;-78
2023/09/05 07:38:31;;;;;;;2.65;1.92;;;;;;;;;;6221161;28;20344;-77
2023/09/05 07:41:33;;;;;;;3.03;2.08;;;;;;;;;;6222192;28;20054;-78
2023/09/05 07:44:35;;;;;;;3.03;2.53;;;;;;;;;;6236189;28;20045;-78
2023/09/05 07:47:37;;;;;;;4.53;2.10;;;;;;;;;;6216138;28;20042;-80
2023/09/05 07:50:38;;;;;;;1.97;1.77;;;;;;;;;;6223855;28;20058;-77
2023/09/05 07:53:50;;;;;;;2.00;1.77;;;;;;;;;;6223605;28;20511;-77
2023/09/05 07:56:52;;;;;;;5.97;2.20;;;;;;;;;;6254054;28;20056;-76
2023/09/05 07:59:54;;;;;;;2.72;1.83;;;;;;;;;;6239586;28;20443;-77
2023/09/05 08:02:56;;;;;;;2.28;2.00;;;;;;;;;;6242721;28;20042;-76
2023/09/05 08:05:57;;;;;;;2.20;1.85;;;;;;;;;;6243316;28;20041;-78
2023/09/05 08:08:59;;;;;;;3.47;2.15;;;;;;;;;;6235096;28;20053;-78
2023/09/05 08:12:01;;;;;;;2.50;2.17;;;;;;;;;;6228501;28;20049;-79
2023/09/05 08:15:05;;;;;;;3.38;1.92;;;;;;;;;;6226572;28;20119;-77
2023/09/05 08:18:07;;;;;;;1.88;1.70;;;;;;;;;;6237140;28;20049;-77
2023/09/05 08:21:09;;;;;;;2.75;1.95;;;;;;;;;;6231752;28;20057;-79
2023/09/05 08:24:11;;;;;;;2.63;2.00;;;;;;;;;;6228288;28;20418;-77
2023/09/05 08:27:13;;;;;;;2.40;1.65;;;;;;;;;;6217841;28;20765;-80
2023/09/05 08:30:16;;;;;;;2.90;1.83;;;;;;;;;;6211496;28;20041;-81
2023/09/05 08:33:17;;;;;;;3.67;1.83;;;;;;;;;;6204565;28;20343;-78
2023/09/05 08:36:19;;;;;;;4.37;2.00;;;;;;;;;;6196526;28;20042;-77
2023/09/05 08:39:21;;;;;;;2.33;1.98;;;;;;;;;;6220675;28;20434;-79
2023/09/05 08:42:23;;;;;;;2.42;1.80;;;;;;;;;;6211893;28;20057;-79
2023/09/05 08:45:26;;;;;;;3.28;1.70;;;;;;;;;;6204496;28;20066;-77
2023/09/05 08:48:27;;;;;;;3.70;1.80;;;;;;;;;;6180921;28;20057;-80
2023/09/05 08:51:52;;;;;;;2.72;2.35;;;;;;;;;;6189341;28;20067;-78
2023/09/05 08:54:56;;;;;;;2.83;1.77;;;;;;;;;;6201602;28;20073;-78
2023/09/05 08:58:00;;;;;;;2.85;1.63;;;;;;;;;;6190015;28;20066;-80
2023/09/05 09:01:01;;;;;;;2.38;1.80;;;;;;;;;;6190750;28;20054;-77
2023/09/05 09:04:04;;;;;;;2.33;1.80;;;;;;;;;;6190094;28;20049;-78
2023/09/05 09:07:06;;;;;;;5.13;1.98;;;;;;;;;;6195899;28;20389;-78
2023/09/05 09:10:19;;;;;;;1.88;1.67;;;;;;;;;;6216126;28;20046;-77
2023/09/05 09:13:24;;;;;;;3.60;1.73;;;;;;;;;;6207444;28;20046;-79
2023/09/05 09:16:26;;;;;;;4.10;1.77;;;;;;;;;;6204716;28;20120;-78
2023/09/05 09:19:31;;;;;;;1.67;1.58;;;;;;;;;;6213816;28;20111;-79
2023/09/05 09:22:33;;;;;;;;;;;;;;;;;;6213631;28;20054;-81
2023/09/05 09:25:35;;;;;;;1.95;1.75;;;;;;;;;;6210180;28;19921;-80
2023/09/05 09:28:37;;;;;;;1.92;1.38;;;;;;;;;;6200362;28;20054;-79
2023/09/05 09:31:40;;;;;;;;;;;;;;;;;;6213862;28;20452;-80
2023/09/05 09:34:41;;;;;;;2.95;1.77;;;;;;;;;;6222655;28;20260;-79
2023/09/05 09:37:46;;;;;;;3.50;1.97;;;;;;;;;;6204577;28;20057;-78
2023/09/05 09:40:49;;;;;;;4.00;1.80;;;;;;;;;;6198031;28;20045;-79
2023/09/05 09:43:55;;;;;;;4.60;2.10;;;;;;;;;;6200939;28;20072;-80
2023/09/05 09:46:58;;;;;;;3.78;1.65;;;;;;;;;;6201965;28;20052;-80
2023/09/05 09:50:02;;;;;;;2.25;1.65;;;;;;;;;;6201297;28;20041;-76
2023/09/05 09:53:04;;;;;;;1.70;1.60;;;;;;;;;;6213289;28;20050;-77
2023/09/05 09:56:11;;;;;;;3.83;1.90;;;;;;;;;;6210416;28;20054;-79
2023/09/05 09:59:16;;;;;;;3.33;2.20;;;;;;;;;;6212659;28;20427;-80
2023/09/05 10:02:19;;;;;;;1.92;1.52;;;;;;;;;;6214271;28;20403;-80
2023/09/05 10:05:24;;;;;;;4.45;1.80;;;;;;;;;;6219007;28;20092;-79
2023/09/05 10:08:28;;;;;;;2.25;1.42;;;;;;;;;;6213298;28;20053;-79
2023/09/05 10:11:32;;;;;;;1.70;1.52;;;;;;;;;;6207737;28;20176;-77
2023/09/05 10:14:36;;;;;;;1.92;1.52;;;;;;;;;;6227879;28;20061;-80
2023/09/05 10:17:39;;;;;;;6.55;2.20;;;;;;;;;;6209679;28;20050;-78
2023/09/05 10:20:42;;;;;;;2.65;1.70;;;;;;;;;;6208202;28;20045;-78
2023/09/05 10:23:44;;;;;;;2.20;1.50;;;;;;;;;;6185895;28;20082;-79
2023/09/05 10:26:47;;;;;;;3.40;2.30;;;;;;;;;;6195019;28;20057;-76
2023/09/05 10:29:52;;;;;;;2.63;1.75;;;;;;;;;;6185455;28;20089;-76
2023/09/05 10:32:57;;;;;;;3.38;1.70;;;;;;;;;;6201625;28;20034;-77
2023/09/05 10:35:58;;;;;;;2.40;1.48;;;;;;;;;;6205430;28;20041;-76
2023/09/05 10:39:16;;;;;;;4.90;1.80;;;;;;;;;;6215925;28;20044;-77
2023/09/05 10:42:26;;;;;;;2.15;1.65;;;;;;;;;;6203504;28;20056;-77
2023/09/05 10:45:30;;;;;;;2.95;1.70;;;;;;;;;;6203781;28;20049;-78
2023/09/05 10:48:37;;;;;;;1.55;1.40;;;;;;;;;;6207761;28;20104;-76
2023/09/05 10:52:17;;;;;;;1.63;1.52;;;;;;;;;;6208309;28;20054;-77
2023/09/05 10:55:25;;;;;;;2.40;1.40;;;;;;;;;;6202483;28;20526;-76
2023/09/05 10:58:42;;;;;;;1.73;1.40;;;;;;;;;;6207899;28;20065;-78
2023/09/05 11:01:48;;;;;;;2.92;1.50;;;;;;;;;;6210095;28;20056;-75
2023/09/05 11:04:50;;;;;;;3.92;1.83;;;;;;;;;;6206277;28;20413;-79
2023/09/05 11:07:55;;;;;;;4.07;1.65;;;;;;;;;;6194515;28;20043;-75
2023/09/05 11:10:56;;;;;;;2.50;1.40;;;;;;;;;;6208159;28;20101;-75
2023/09/05 11:13:58;;;;;;;2.03;1.40;;;;;;;;;;6208445;28;20073;-77
2023/09/05 11:17:01;;;;;;;1.50;1.40;;;;;;;;;;6203910;28;20042;-77
2023/09/05 11:20:03;;;;;;;1.65;1.55;;;;;;;;;;6192996;28;20133;-78
2023/09/05 11:23:25;;;;;;;3.55;1.80;;;;;;;;;;6206145;28;20058;-79
2023/09/05 11:26:27;;;;;;;;;;;;;;;;;;6208212;28;20046;-78
2023/09/05 11:29:29;;;;;;;3.60;1.50;;;;;;;;;;6201432;28;19926;-79
2023/09/05 11:32:36;;;;;;;2.53;1.70;;;;;;;;;;6196761;28;20046;-78
2023/09/05 11:35:40;;;;;;;1.55;1.40;;;;;;;;;;6211169;28;20042;-77
2023/09/05 11:38:49;;;;;;;2.00;1.40;;;;;;;;;;6197279;28;20050;-78
2023/09/05 11:41:54;;;;;;;1.50;1.27;;;;;;;;;;6203462;28;20048;-79
2023/09/05 11:44:55;;;;;;;2.05;1.38;;;;;;;;;;6195940;28;20110;-79
2023/09/05 11:47:58;;;;;;;2.38;1.50;;;;;;;;;;6198928;28;20050;-77
2023/09/05 11:51:00;;;;;;;1.60;1.40;;;;;;;;;;6194673;28;20177;-74
2023/09/05 11:54:02;;;;;;;1.90;1.70;;;;;;;;;;6200799;28;20392;-77
2023/09/05 11:57:04;;;;;;;3.10;1.65;;;;;;;;;;6197394;28;20038;-75
2023/09/05 12:00:14;;;;;;;2.38;1.48;;;;;;;;;;6192815;28;20076;-76
2023/09/05 12:03:17;;;;;;;2.92;1.48;;;;;;;;;;6178489;28;20137;-75
2023/09/05 12:06:21;;;;;;;1.85;1.50;;;;;;;;;;6196538;28;20525;-75
2023/09/05 12:09:22;;;;;;;2.78;1.80;;;;;;;;;;6199631;28;20048;-76
2023/09/05 12:12:24;;;;;;;2.22;1.60;;;;;;;;;;6198049;28;20073;-75
2023/09/05 12:15:39;;;;;;;2.55;1.67;;;;;;;;;;6204315;28;20136;-76
2023/09/05 12:18:40;;;;;;;2.47;1.35;;;;;;;;;;6219806;28;20058;-77
2023/09/05 12:21:47;;;;;;;3.90;1.70;;;;;;;;;;6206312;28;20418;-79
2023/09/05 12:25:08;;;;;;;2.83;1.92;;;;;;;;;;6202105;28;20052;-79
2023/09/05 12:28:20;;;;;;;1.50;1.40;;;;;;;;;;6209388;28;20495;-80
2023/09/05 12:31:23;;;;;;;2.40;1.55;;;;;;;;;;6202967;28;20038;-82
2023/09/05 12:34:25;;;;;;;1.92;1.70;;;;;;;;;;6205011;28;20076;-81
2023/09/05 12:37:27;;;;;;;3.22;1.33;;;;;;;;;;6214559;28;20052;-80
2023/09/05 12:40:28;;;;;;;2.60;1.45;;;;;;;;;;6216105;28;20163;-80
2023/09/05 12:43:30;;;;;;;1.90;1.45;;;;;;;;;;6204035;28;20476;-80
2023/09/05 12:46:34;;;;;;;1.67;1.40;;;;;;;;;;6201439;28;20064;-79
2023/09/05 12:49:41;;;;;;;1.95;1.58;;;;;;;;;;6185489;28;20050;-77
2023/09/05 12:52:51;;;;;;;1.80;1.70;;;;;;;;;;6186403;28;20042;-79
2023/09/05 12:55:52;;;;;;;1.92;1.70;;;;;;;;;;6200967;28;20045;-79
2023/09/05 12:58:55;;;;;;;1.73;1.42;;;;;;;;;;6213938;28;20068;-79
2023/09/05 13:01:56;;;;;;;3.28;1.33;;;;;;;;;;6209801;28;20523;-77
2023/09/05 13:04:59;;;;;;;1.63;1.42;;;;;;;;;;6195980;28;20178;-76
2023/09/05 13:08:01;;;;;;;3.67;1.67;;;;;;;;;;6205309;28;20041;-76
2023/09/05 13:11:03;;;;;;;2.03;1.45;;;;;;;;;;6211425;28;20126;-77
2023/09/05 13:14:05;;;;;;;2.80;1.60;;;;;;;;;;6199026;28;20045;-75
2023/09/05 13:17:08;;;;;;;3.65;1.63;;;;;;;;;;6220070;28;20522;-76
2023/09/05 13:20:10;;;;;;;1.85;1.40;;;;;;;;;;6223120;28;20049;-77
2023/09/05 13:23:13;;;;;;;1.30;1.17;;;;;;;;;;6222887;28;20313;-78
2023/09/05 13:26:15;;;;;;;1.65;1.40;;;;;;;;;;6187037;28;20042;-76
2023/09/05 13:29:17;;;;;;;2.75;1.33;;;;;;;;;;6212021;28;20469;-78
2023/09/05 13:32:19;;;;;;;2.25;1.30;;;;;;;;;;6203854;28;20050;-76
2023/09/05 13:35:21;;;;;;;1.90;1.33;;;;;;;;;;6219463;28;20419;-76
2023/09/05 13:38:23;;;;;;;1.77;1.50;;;;;;;;;;6224658;28;20416;-81
2023/09/05 13:41:25;;;;;;;1.40;1.30;;;;;;;;;;6199667;28;20050;-81
2023/09/05 13:44:27;;;;;;;2.85;1.38;;;;;;;;;;6218022;28;20415;-78
2023/09/05 13:47:30;;;;;;;2.38;1.42;;;;;;;;;;6205533;28;20038;-78
2023/09/05 13:50:32;;;;;;;2.95;1.33;;;;;;;;;;6171553;28;20152;-77
2023/09/05 13:53:33;;;;;;;1.27;1.17;;;;;;;;;;6188287;28;20151;-75
2023/09/05 13:56:36;;;;;;;1.30;1.20;;;;;;;;;;6198789;28;20057;-79
2023/09/05 13:59:37;;;;;;;2.13;1.25;;;;;;;;;;6193293;28;20057;-80
2023/09/05 14:02:40;;;;;;;1.73;1.30;;;;;;;;;;6198673;28;20061;-78
2023/09/05 14:05:42;;;;;;;1.50;1.27;;;;;;;;;;6207888;28;20054;-81
2023/09/05 14:08:44;;;;;;;1.23;1.05;;;;;;;;;;6210946;28;20249;-79
2023/09/05 14:11:46;;;;;;;1.00;0.95;;;;;;;;;;6201801;28;20056;-82
2023/09/05 14:14:48;;;;;;;2.17;1.20;;;;;;;;;;6201881;28;20451;-81
2023/09/05 14:17:49;;;;;;;1.83;1.10;;;;;;;;;;6185702;28;20052;-82
2023/09/05 14:20:51;;;;;;;1.83;1.27;;;;;;;;;;6195673;28;20045;-82
2023/09/05 14:23:53;;;;;;;1.55;1.17;;;;;;;;;;6179363;28;20077;-81
2023/09/05 14:26:56;;;;;;;1.25;1.15;;;;;;;;;;6189459;28;20038;-83
2023/09/05 14:29:58;;;;;;;3.22;1.17;;;;;;;;;;6210545;28;20049;-81
2023/09/05 14:33:00;;;;;;;1.42;1.33;;;;;;;;;;6191596;28;20057;-83
2023/09/05 14:36:02;;;;;;;2.92;1.10;;;;;;;;;;6194048;28;20165;-84
2023/09/05 14:39:04;;;;;;;1.95;1.50;;;;;;;;;;6208682;28;20050;-80
2023/09/05 14:42:09;;;;;;;1.98;1.20;;;;;;;;;;6223237;28;20061;-80
2023/09/05 14:45:11;;;;;;;4.55;1.33;;;;;;;;;;6212827;28;20289;-80
2023/09/05 14:48:13;;;;;;;1.10;1.00;;;;;;;;;;6213088;28;20071;-80
2023/09/05 14:51:15;;;;;;;1.17;1.10;;;;;;;;;;6211656;28;20576;-80
2023/09/05 14:54:17;;;;;;;2.45;1.20;;;;;;;;;;6219416;28;20084;-80
2023/09/05 14:57:19;;;;;;;1.58;1.10;;;;;;;;;;6205344;28;20050;-80
2023/09/05 15:00:21;;;;;;;2.42;1.20;;;;;;;;;;6202630;28;20056;-80
2023/09/05 15:03:23;;;;;;;;;;;;;;;;;;6196715;28;20417;-79
2023/09/05 15:06:24;;;;;;;2.15;1.13;;;;;;;;;;6195114;28;20410;-80
2023/09/05 15:09:27;;;;;;;1.35;1.05;;;;;;;;;;6213874;28;20137;-81
2023/09/05 15:12:29;;;;;;;1.70;1.20;;;;;;;;;;6207841;28;20050;-80
2023/09/05 15:15:32;;;;;;;1.95;1.23;;;;;;;;;;6211694;28;20673;-77
2023/09/05 15:18:34;;;;;;;2.10;1.08;;;;;;;;;;6204159;28;20065;-79
2023/09/05 15:21:38;;;;;;;2.30;1.30;;;;;;;;;;6216952;28;20130;-80
2023/09/05 15:24:40;;;;;;;1.52;1.30;;;;;;;;;;6217146;28;20054;-79
2023/09/05 15:27:45;;;;;;;3.58;1.30;;;;;;;;;;6216406;28;20054;-79
2023/09/05 15:30:47;;;;;;;1.95;1.30;;;;;;;;;;6192266;28;20041;-79
2023/09/05 15:33:51;;;;;;;1.20;1.10;;;;;;;;;;6233201;28;20042;-81
2023/09/05 15:36:53;;;;;;;1.50;1.20;;;;;;;;;;6220504;28;20072;-80
2023/09/05 15:39:54;;;;;;;2.75;1.20;;;;;;;;;;6214965;28;20046;-80
2023/09/05 15:42:56;;;;;;;2.88;1.13;;;;;;;;;;6214818;28;20056;-76
2023/09/05 15:45:58;;;;;;;2.63;1.77;;;;;;;;;;6222541;28;20046;-79
2023/09/05 15:49:01;;;;;;;1.42;1.33;;;;;;;;;;6201329;28;20062;-78
2023/09/05 15:52:03;;;;;;;1.60;1.45;;;;;;;;;;6212929;28;20061;-79
2023/09/05 15:55:05;;;;;;;;;;;;;;;;;;6194370;28;20590;-78
2023/09/05 15:58:07;;;;;;;3.03;1.30;;;;;;;;;;6196070;28;19922;-78
2023/09/05 16:01:09;;;;;;;1.33;1.10;;;;;;;;;;6196558;28;20418;-81
2023/09/05 16:04:11;;;;;;;2.28;1.20;;;;;;;;;;6223707;28;20061;-80
2023/09/05 16:07:13;;;;;;;1.80;1.30;;;;;;;;;;6216013;28;20046;-77
2023/09/05 16:10:16;;;;;;;1.45;1.30;;;;;;;;;;6220621;28;20084;-75
2023/09/05 16:13:18;;;;;;;1.10;1.00;;;;;;;;;;6210749;28;20419;-78
2023/09/05 16:16:21;;;;;;;2.95;1.40;;;;;;;;;;6210032;28;20046;-80
2023/09/05 16:19:24;;;;;;;2.47;2.28;;;;;;;;;;6221299;28;20077;-80
2023/09/05 16:22:27;;;;;;;1.30;1.20;;;;;;;;;;6218856;28;20048;-76
2023/09/05 16:25:28;;;;;;;1.58;1.45;;;;;;;;;;6214212;28;20076;-80
2023/09/05 16:28:30;;;;;;;2.55;1.20;;;;;;;;;;6213052;28;20046;-80
2023/09/05 16:31:34;;;;;;;1.75;1.20;;;;;;;;;;6216821;28;20069;-77
2023/09/05 16:34:36;;;;;;;3.08;1.10;;;;;;;;;;6193933;28;20129;-78
2023/09/05 16:37:37;;;;;;;1.55;1.23;;;;;;;;;;6225965;28;20152;-79
2023/09/05 16:40:39;;;;;;;1.60;1.50;;;;;;;;;;6216457;28;21627;-80
2023/09/05 16:43:42;;;;;;;3.10;1.92;;;;;;;;;;6196668;28;20077;-74
2023/09/05 16:46:43;;;;;;;2.42;1.60;;;;;;;;;;6199058;28;21037;-78
2023/09/05 16:49:46;;;;;;;1.98;1.30;;;;;;;;;;6218033;28;20041;-77
2023/09/05 16:52:51;;;;;;;2.95;1.50;;;;;;;;;;6183094;28;20046;-78
2023/09/05 16:55:52;;;;;;;1.83;1.20;;;;;;;;;;6179073;28;20046;-79
2023/09/05 16:58:55;;;;;;;2.58;1.45;;;;;;;;;;6192203;28;20045;-78
2023/09/05 17:01:57;;;;;;;1.30;1.20;;;;;;;;;;6197467;28;20038;-76
2023/09/05 17:04:58;;;;;;;1.33;1.23;;;;;;;;;;6216945;28;20050;-76
2023/09/05 17:08:00;;;;;;;3.37;1.30;;;;;;;;;;6193943;28;20042;-77
2023/09/05 17:11:02;;;;;;;2.37;1.67;;;;;;;;;;6217777;28;20595;-79
2023/09/05 17:14:04;;;;;;;4.50;1.60;;;;;;;;;;6211312;28;20600;-77
2023/09/05 17:17:06;;;;;;;2.53;1.52;;;;;;;;;;6175599;28;20186;-75
2023/09/05 17:20:08;;;;;;;2.70;1.70;;;;;;;;;;6179253;28;20050;-75
2023/09/05 17:23:11;;;;;;;4.03;1.75;;;;;;;;;;6191514;28;20983;-76
2023/09/05 17:26:13;;;;;;;;;;;;;;;;;;6216351;28;20041;-76
2023/09/05 17:29:16;;;;;;;3.35;1.55;;;;;;;;;;6201882;28;19973;-77
2023/09/05 17:32:18;;;;;;;3.05;1.42;;;;;;;;;;6212912;28;20068;-76
2023/09/05 17:35:19;;;;;;;3.13;1.40;;;;;;;;;;6202250;28;20066;-78
2023/09/05 17:38:21;;;;;;;1.80;1.40;;;;;;;;;;6197176;28;20128;-76
2023/09/05 17:41:23;;;;;;;2.53;1.45;;;;;;;;;;6199414;28;20056;-77
2023/09/05 17:44:27;;;;;;;5.03;1.58;;;;;;;;;;6199525;28;20046;-76
2023/09/05 17:47:31;;;;;;;3.30;1.75;;;;;;;;;;6202044;28;20045;-79
2023/09/05 17:50:32;;;;;;;3.05;1.33;;;;;;;;;;6201903;28;20197;-76
2023/09/05 17:53:35;;;;;;;2.80;1.45;;;;;;;;;;6201560;28;20081;-78
2023/09/05 17:56:37;;;;;;;4.40;1.60;;;;;;;;;;6190412;28;20076;-77
2023/09/05 17:59:40;;;;;;;1.70;1.50;;;;;;;;;;6191011;28;20054;-77
2023/09/05 18:02:42;;;;;;;1.55;1.40;;;;;;;;;;6175423;28;20859;-78
2023/09/05 18:05:49;;;;;;;1.63;1.45;;;;;;;;;;6191615;28;20399;-80
2023/09/05 18:08:51;;;;;;;4.13;1.75;;;;;;;;;;6182492;28;20050;-79
2023/09/05 18:11:53;;;;;;;2.15;1.60;;;;;;;;;;6183587;28;20487;-79
2023/09/05 18:14:54;;;;;;;1.67;1.48;;;;;;;;;;6195073;28;20053;-77
2023/09/05 18:17:58;;;;;;;3.45;1.60;;;;;;;;;;6202853;28;20461;-77
2023/09/05 18:21:02;;;;;;;3.17;1.55;;;;;;;;;;6202079;28;20415;-77
2023/09/05 18:24:04;;;;;;;1.42;1.33;;;;;;;;;;6197804;28;20050;-78
2023/09/05 18:27:06;;;;;;;3.67;1.53;;;;;;;;;;6202373;28;20045;-78
2023/09/05 18:30:08;;;;;;;2.50;1.70;;;;;;;;;;6186886;28;20047;-79
2023/09/05 18:33:10;;;;;;;3.53;1.80;;;;;;;;;;6173633;28;20050;-77
2023/09/05 18:36:12;;;;;;;3.40;1.60;;;;;;;;;;6177504;28;20050;-78
2023/09/05 18:39:14;;;;;;;2.60;1.58;;;;;;;;;;6185046;28;20054;-78
2023/09/05 18:42:16;;;;;;;6.57;2.10;;;;;;;;;;6199549;28;20440;-79
2023/09/05 18:45:17;;;;;;;3.28;1.73;;;;;;;;;;6199569;28;20082;-77
2023/09/05 18:48:20;;;;;;;3.55;1.45;;;;;;;;;;6209751;28;20049;-78